createdAt,value
2018-07-16T00:01:23.322Z,7.80
2018-07-16T00:03:52.320Z,7.33
2018-07-16T00:06:21.439Z,7.40
2018-07-16T00:08:51.475Z,7.80
2018-07-16T00:11:20.620Z,8.37
2018-07-16T00:13:49.675Z,7.03
2018-07-16T00:16:18.749Z,7.80
2018-07-16T00:18:47.719Z,7.43
2018-07-16T00:21:16.692Z,6.90
2018-07-16T00:23:45.708Z,7.13
2018-07-16T00:26:14.698Z,7.60
2018-07-16T00:28:43.800Z,7.23
2018-07-16T00:31:12.989Z,8.53
2018-07-16T00:33:41.950Z,7.53
2018-07-16T00:36:10.935Z,7.87
2018-07-16T00:38:39.898Z,7.70
2018-07-16T00:41:08.895Z,8.13
2018-07-16T00:43:37.867Z,7.17
2018-07-16T00:46:07.865Z,8.23
2018-07-16T00:48:36.835Z,8.57
2018-07-16T00:51:05.965Z,8.87
2018-07-16T00:53:34.940Z,8.37
2018-07-16T00:56:03.984Z,8.27
2018-07-16T00:58:33.019Z,8.37
2018-07-16T01:01:02.739Z,8.87
2018-07-16T01:03:31.891Z,9.77
2018-07-16T01:06:00.866Z,9.33
2018-07-16T01:08:30.446Z,9.57
2018-07-16T01:10:59.422Z,9.87
2018-07-16T01:13:28.573Z,8.10
2018-07-16T01:15:57.522Z,8.63
2018-07-16T01:18:26.607Z,9.70
2018-07-16T01:20:55.719Z,9.53
2018-07-16T01:23:24.781Z,9.20
2018-07-16T01:25:53.949Z,9.07
2018-07-16T01:28:23.888Z,8.73
2018-07-16T01:30:52.941Z,8.90
2018-07-16T01:33:22.056Z,8.43
2018-07-16T01:35:52.226Z,9.97
2018-07-16T01:38:21.468Z,8.80
2018-07-16T01:40:50.515Z,9.20
2018-07-16T01:43:19.471Z,9.03
2018-07-16T01:45:48.124Z,10.20
2018-07-16T01:48:17.010Z,9.50
2018-07-16T01:50:46.011Z,9.17
2018-07-16T01:53:15.068Z,9.53
2018-07-16T01:55:44.061Z,10.80
2018-07-16T01:58:13.159Z,9.40
2018-07-16T02:00:54.152Z,10.40
2018-07-16T02:03:24.708Z,10.37
2018-07-16T02:05:53.882Z,10.13
2018-07-16T02:08:24.495Z,10.17
2018-07-16T02:10:53.919Z,10.43
2018-07-16T02:13:23.636Z,10.43
2018-07-16T02:15:52.740Z,9.43
2018-07-16T02:18:22.035Z,10.97
2018-07-16T02:20:51.138Z,9.67
2018-07-16T02:23:20.169Z,11.47
2018-07-16T02:25:49.273Z,10.57
2018-07-16T02:28:18.275Z,9.83
2018-07-16T02:30:47.442Z,10.80
2018-07-16T02:33:16.454Z,10.10
2018-07-16T02:35:45.465Z,11.40
2018-07-16T02:38:14.520Z,10.93
2018-07-16T02:40:43.497Z,11.73
2018-07-16T02:43:12.494Z,11.53
2018-07-16T02:45:41.517Z,11.00
2018-07-16T02:48:10.512Z,10.83
2018-07-16T02:50:39.496Z,10.77
2018-07-16T02:53:08.521Z,11.37
2018-07-16T02:55:37.531Z,11.53
2018-07-16T02:58:06.933Z,12.07
2018-07-16T03:00:36.033Z,12.07
2018-07-16T03:03:05.091Z,12.10
2018-07-16T03:05:34.190Z,12.13
2018-07-16T03:08:03.308Z,11.57
2018-07-16T03:10:32.905Z,11.90
2018-07-16T03:13:02.041Z,12.67
2018-07-16T03:15:31.051Z,10.97
2018-07-16T03:18:00.037Z,12.33
2018-07-16T03:20:29.726Z,11.83
2018-07-16T03:22:58.688Z,11.60
2018-07-16T03:25:27.415Z,12.30
2018-07-16T03:27:56.932Z,11.80
2018-07-16T03:30:25.940Z,14.33
2018-07-16T03:32:55.008Z,12.47
2018-07-16T03:35:23.980Z,13.13
2018-07-16T03:37:53.059Z,11.93
2018-07-16T03:40:22.060Z,12.53
2018-07-16T03:42:51.837Z,13.50
2018-07-16T03:45:20.866Z,12.40
2018-07-16T03:47:49.864Z,13.17
2018-07-16T03:50:18.900Z,12.43
2018-07-16T03:52:48.934Z,11.93
2018-07-16T03:55:18.049Z,12.57
2018-07-16T03:57:47.158Z,12.63
2018-07-16T04:00:16.131Z,11.63
2018-07-16T04:02:45.117Z,12.63
2018-07-16T04:05:14.202Z,12.80
2018-07-16T04:07:43.314Z,12.23
2018-07-16T04:10:12.892Z,13.10
2018-07-16T04:12:41.913Z,13.00
2018-07-16T04:15:10.947Z,12.03
2018-07-16T04:17:39.953Z,13.43
2018-07-16T04:20:09.358Z,12.33
2018-07-16T04:22:38.364Z,11.60
2018-07-16T04:28:09.413Z,13.00
2018-07-16T04:30:39.100Z,12.40
2018-07-16T04:33:08.610Z,12.03
2018-07-16T04:35:38.120Z,12.33
2018-07-16T04:38:07.111Z,13.20
2018-07-16T04:40:36.123Z,12.27
2018-07-16T04:43:05.129Z,12.07
2018-07-16T04:45:34.156Z,12.00
2018-07-16T04:48:03.145Z,11.67
2018-07-16T04:50:32.749Z,12.37
2018-07-16T04:53:01.829Z,11.57
2018-07-16T04:55:30.899Z,11.53
2018-07-16T04:57:59.863Z,11.50
2018-07-16T05:00:29.016Z,11.53
2018-07-16T05:02:58.005Z,12.20
2018-07-16T05:05:27.034Z,10.87
2018-07-16T05:07:56.260Z,11.20
2018-07-16T05:10:25.292Z,10.97
2018-07-16T05:12:54.401Z,11.47
2018-07-16T05:15:23.524Z,11.27
2018-07-16T05:17:52.520Z,10.10
2018-07-16T05:20:21.541Z,10.97
2018-07-16T05:22:50.582Z,9.70
2018-07-16T05:25:19.828Z,9.23
2018-07-16T05:27:48.920Z,9.50
2018-07-16T05:30:17.943Z,11.13
2018-07-16T05:32:47.083Z,10.70
2018-07-16T05:35:16.323Z,10.13
2018-07-16T05:37:45.325Z,10.67
2018-07-16T05:40:14.680Z,10.30
2018-07-16T05:42:43.647Z,9.50
2018-07-16T05:45:12.819Z,10.00
2018-07-16T05:47:42.111Z,10.13
2018-07-16T05:50:11.109Z,10.23
2018-07-16T05:52:40.112Z,10.20
2018-07-16T05:55:09.187Z,10.33
2018-07-16T05:57:38.205Z,10.50
2018-07-16T06:00:07.252Z,10.83
2018-07-16T06:02:37.011Z,10.60
2018-07-16T06:05:06.313Z,10.53
2018-07-16T06:07:35.331Z,10.93
2018-07-16T06:10:04.550Z,11.10
2018-07-16T06:12:33.700Z,9.77
2018-07-16T06:15:03.008Z,10.47
2018-07-16T06:17:32.059Z,10.77
2018-07-16T06:20:01.372Z,9.73
2018-07-16T06:22:30.523Z,9.93
2018-07-16T06:24:59.508Z,10.37
2018-07-16T06:27:28.504Z,9.80
2018-07-16T06:29:57.542Z,9.63
2018-07-16T06:32:26.609Z,8.37
2018-07-16T06:34:55.666Z,7.77
2018-07-16T06:37:24.662Z,8.70
2018-07-16T06:39:53.844Z,8.10
2018-07-16T06:42:22.873Z,7.93
2018-07-16T06:44:51.980Z,8.53
2018-07-16T06:47:21.081Z,7.50
2018-07-16T06:49:50.194Z,7.63
2018-07-16T06:52:19.295Z,7.87
2018-07-16T06:54:48.293Z,7.67
2018-07-16T06:57:17.409Z,6.90
2018-07-16T06:59:46.360Z,6.17
2018-07-16T07:02:15.344Z,6.60
2018-07-16T07:04:44.406Z,7.57
2018-07-16T07:07:13.463Z,6.87
2018-07-16T07:09:42.744Z,7.97
2018-07-16T07:12:11.724Z,7.72
2018-07-16T07:14:40.866Z,6.58
2018-07-16T07:17:09.968Z,6.50
2018-07-16T07:19:39.078Z,5.83
2018-07-16T07:22:08.065Z,5.80
2018-07-16T07:24:37.154Z,5.20
2018-07-16T07:27:06.273Z,5.35
2018-07-16T07:29:35.364Z,5.17
2018-07-16T07:32:04.463Z,5.47
2018-07-16T07:34:33.557Z,5.00
2018-07-16T07:37:02.555Z,5.25
2018-07-16T07:39:31.607Z,5.17
2018-07-16T07:42:00.558Z,4.45
2018-07-16T07:44:29.660Z,4.60
2018-07-16T07:46:58.620Z,4.08
2018-07-16T07:49:27.655Z,4.10
2018-07-16T07:51:56.676Z,4.28
2018-07-16T07:54:25.885Z,4.43
2018-07-16T07:56:54.700Z,4.30
2018-07-16T07:59:23.659Z,4.20
2018-07-16T08:01:52.718Z,3.65
2018-07-16T08:04:22.373Z,4.10
2018-07-16T08:06:56.761Z,3.60
2018-07-16T08:09:25.739Z,3.80
2018-07-16T08:11:54.736Z,3.72
2018-07-16T08:14:23.978Z,3.47
2018-07-16T08:16:53.090Z,4.17
2018-07-16T08:19:22.151Z,4.28
2018-07-16T08:21:51.152Z,3.80
2018-07-16T08:24:20.206Z,3.47
2018-07-16T08:26:49.264Z,3.22
2018-07-16T08:29:18.326Z,3.50
2018-07-16T08:31:47.340Z,3.20
2018-07-16T08:34:16.374Z,3.55
2018-07-16T08:36:45.368Z,3.45
2018-07-16T08:39:14.434Z,3.45
2018-07-16T08:41:43.383Z,3.10
2018-07-16T08:44:12.385Z,3.75
2018-07-16T08:46:41.371Z,3.40
2018-07-16T08:49:10.371Z,3.65
2018-07-16T08:51:39.368Z,3.50
2018-07-16T08:54:08.342Z,3.22
2018-07-16T08:56:37.293Z,3.00
2018-07-16T08:59:06.311Z,3.40
2018-07-16T09:01:35.405Z,3.37
2018-07-16T09:04:04.470Z,3.55
2018-07-16T09:06:33.455Z,3.50
2018-07-16T09:09:02.537Z,3.08
2018-07-16T09:11:31.533Z,3.17
2018-07-16T09:14:00.562Z,2.50
2018-07-16T09:16:29.528Z,2.60
2018-07-16T09:18:58.573Z,1.75
2018-07-16T09:21:27.576Z,1.90
2018-07-16T09:23:56.686Z,2.02
2018-07-16T09:26:25.844Z,2.77
2018-07-16T09:28:54.838Z,2.45
2018-07-16T09:31:23.874Z,2.65
2018-07-16T09:33:53.008Z,2.42
2018-07-16T09:36:22.012Z,2.20
2018-07-16T09:38:51.029Z,2.65
2018-07-16T09:41:19.993Z,2.70
2018-07-16T09:43:49.078Z,3.20
2018-07-16T09:46:18.053Z,2.95
2018-07-16T09:48:47.048Z,2.50
2018-07-16T09:51:16.073Z,3.10
2018-07-16T09:53:45.052Z,2.90
2018-07-16T09:56:14.049Z,2.65
2018-07-16T09:58:43.081Z,2.80
2018-07-16T10:01:17.379Z,2.50
2018-07-16T10:03:46.376Z,2.62
2018-07-16T10:06:15.416Z,2.65
2018-07-16T10:08:44.402Z,2.55
2018-07-16T10:11:13.526Z,3.05
2018-07-16T10:13:42.508Z,2.37
2018-07-16T10:16:11.507Z,2.35
2018-07-16T10:18:40.550Z,2.50
2018-07-16T10:21:09.609Z,2.40
2018-07-16T10:23:38.617Z,2.33
2018-07-16T10:26:07.644Z,2.00
2018-07-16T10:28:36.353Z,2.10
2018-07-16T10:31:05.332Z,2.15
2018-07-16T10:33:34.359Z,2.30
2018-07-16T10:36:03.344Z,2.42
2018-07-16T10:38:32.385Z,2.12
2018-07-16T10:41:01.439Z,2.30
2018-07-16T10:43:30.445Z,2.47
2018-07-16T10:45:59.536Z,2.33
2018-07-16T10:48:28.736Z,2.40
2018-07-16T10:50:57.756Z,2.60
2018-07-16T10:53:26.732Z,2.20
2018-07-16T10:55:55.807Z,2.33
2018-07-16T10:58:24.928Z,2.30
2018-07-16T11:00:54.036Z,2.33
2018-07-16T11:03:23.076Z,2.30
2018-07-16T11:05:52.105Z,2.20
2018-07-16T11:08:21.234Z,2.33
2018-07-16T11:10:50.211Z,1.95
2018-07-16T11:13:19.428Z,2.15
2018-07-16T11:15:48.495Z,2.10
2018-07-16T11:18:17.524Z,2.30
2018-07-16T11:20:46.580Z,2.30
2018-07-16T11:23:15.617Z,2.40
2018-07-16T11:25:48.787Z,1.75
2018-07-16T11:28:17.779Z,2.40
2018-07-16T11:30:46.769Z,2.20
2018-07-16T11:33:16.004Z,2.42
2018-07-16T11:35:45.320Z,2.15
2018-07-16T11:38:14.452Z,2.30
2018-07-16T11:40:43.529Z,2.02
2018-07-16T11:43:12.565Z,2.30
2018-07-16T11:45:41.877Z,2.20
2018-07-16T11:48:10.945Z,2.20
2018-07-16T11:50:40.008Z,1.98
2018-07-16T11:53:09.175Z,2.12
2018-07-16T11:55:38.226Z,2.25
2018-07-16T11:58:07.338Z,2.22
2018-07-16T12:00:36.516Z,2.22
2018-07-16T12:03:05.710Z,2.20
2018-07-16T12:05:34.726Z,1.90
2018-07-16T12:08:03.797Z,2.02
2018-07-16T12:10:32.834Z,2.08
2018-07-16T12:13:01.902Z,2.17
2018-07-16T12:15:30.946Z,1.80
2018-07-16T12:17:59.996Z,1.70
2018-07-16T12:20:29.214Z,2.45
2018-07-16T12:22:58.401Z,2.27
2018-07-16T12:25:27.397Z,2.08
2018-07-16T12:27:56.385Z,1.98
2018-07-16T12:30:25.472Z,1.62
2018-07-16T12:32:54.804Z,2.08
2018-07-16T12:35:23.800Z,1.87
2018-07-16T12:37:52.876Z,2.00
2018-07-16T12:40:22.012Z,2.15
2018-07-16T12:42:50.956Z,2.15
2018-07-16T12:45:19.938Z,2.13
2018-07-16T12:47:48.904Z,2.30
2018-07-16T12:50:18.092Z,2.22
2018-07-16T12:52:47.059Z,1.75
2018-07-16T12:55:18.025Z,2.40
2018-07-16T12:57:46.971Z,2.10
2018-07-16T13:00:15.952Z,2.00
2018-07-16T13:02:45.014Z,2.00
2018-07-16T13:05:14.111Z,2.37
2018-07-16T13:07:43.193Z,1.98
2018-07-16T13:10:12.208Z,1.87
2018-07-16T13:12:41.173Z,1.80
2018-07-16T13:15:10.201Z,2.15
2018-07-16T13:17:39.334Z,2.98
2018-07-16T13:20:08.427Z,2.35
2018-07-16T13:22:37.707Z,1.92
2018-07-16T13:25:06.748Z,2.15
2018-07-16T13:27:35.736Z,1.85
2018-07-16T13:30:05.676Z,2.20
2018-07-16T13:32:34.927Z,1.90
2018-07-16T13:35:04.027Z,1.80
2018-07-16T13:37:33.120Z,1.72
2018-07-16T13:40:02.088Z,2.10
2018-07-16T13:42:31.954Z,1.70
2018-07-16T13:45:01.037Z,2.02
2018-07-16T13:47:30.150Z,2.20
2018-07-16T13:49:59.250Z,2.00
2018-07-16T13:52:28.456Z,1.80
2018-07-16T13:54:57.534Z,1.98
2018-07-16T13:57:26.629Z,1.93
2018-07-16T13:59:55.830Z,2.00
2018-07-16T14:02:24.967Z,2.20
2018-07-16T14:04:53.934Z,1.90
2018-07-16T14:07:23.033Z,2.08
2018-07-16T14:09:52.125Z,2.45
2018-07-16T14:12:21.352Z,2.13
2018-07-16T14:14:50.329Z,2.17
2018-07-16T14:17:19.426Z,2.10
2018-07-16T14:19:48.560Z,2.15
2018-07-16T14:22:17.825Z,1.90
2018-07-16T14:24:47.063Z,2.17
2018-07-16T14:27:16.434Z,2.07
2018-07-16T14:29:45.506Z,1.93
2018-07-16T14:32:14.532Z,2.20
2018-07-16T14:34:43.534Z,1.97
2018-07-16T14:37:13.345Z,2.33
2018-07-16T14:39:42.485Z,1.72
2018-07-16T14:42:11.420Z,2.08
2018-07-16T14:44:40.516Z,2.17
2018-07-16T14:47:09.637Z,2.12
2018-07-16T14:49:38.740Z,2.20
2018-07-16T14:52:08.064Z,1.90
2018-07-16T14:54:37.424Z,2.15
2018-07-16T14:57:06.624Z,2.30
2018-07-16T14:59:35.616Z,3.75
2018-07-16T15:02:04.769Z,1.85
2018-07-16T15:04:34.154Z,2.10
2018-07-16T15:07:03.375Z,2.33
2018-07-16T15:09:32.666Z,2.20
2018-07-16T15:12:01.726Z,2.03
2018-07-16T15:14:30.861Z,2.23
2018-07-16T15:16:59.992Z,2.33
2018-07-16T15:19:28.988Z,2.30
2018-07-16T15:21:58.055Z,2.27
2018-07-16T15:24:27.114Z,2.03
2018-07-16T15:26:56.101Z,2.50
2018-07-16T15:29:25.168Z,2.30
2018-07-16T15:31:54.276Z,2.63
2018-07-16T15:34:23.963Z,2.20
2018-07-16T15:36:52.911Z,2.37
2018-07-16T15:39:22.071Z,2.00
2018-07-16T15:41:51.054Z,1.83
2018-07-16T15:44:20.052Z,2.20
2018-07-16T15:46:49.164Z,2.10
2018-07-16T15:49:18.219Z,2.07
2018-07-16T15:51:47.348Z,2.00
2018-07-16T15:54:16.354Z,2.40
2018-07-16T15:56:45.463Z,2.13
2018-07-16T15:59:14.542Z,2.20
2018-07-16T16:01:43.680Z,2.13
2018-07-16T16:04:12.743Z,2.20
2018-07-16T16:06:41.944Z,2.23
2018-07-16T16:09:11.263Z,2.30
2018-07-16T16:11:40.347Z,2.27
2018-07-16T16:14:09.773Z,1.80
2018-07-16T16:16:38.749Z,1.93
2018-07-16T16:19:07.852Z,2.33
2018-07-16T16:21:36.975Z,2.03
2018-07-16T16:24:06.001Z,2.20
2018-07-16T16:26:35.339Z,1.93
2018-07-16T16:29:04.967Z,2.40
2018-07-16T16:31:33.998Z,2.33
2018-07-16T16:34:03.162Z,3.80
2018-07-16T16:36:32.888Z,2.37
2018-07-16T16:39:01.972Z,2.23
2018-07-16T16:41:31.096Z,3.03
2018-07-16T16:44:00.657Z,2.27
2018-07-16T16:46:29.885Z,2.37
2018-07-16T16:48:58.943Z,2.20
2018-07-16T16:51:28.085Z,2.30
2018-07-16T16:53:57.372Z,2.30
2018-07-16T16:56:26.537Z,2.03
2018-07-16T16:58:55.894Z,2.23
2018-07-16T17:01:24.976Z,2.23
2018-07-16T17:03:53.994Z,2.23
2018-07-16T17:06:23.057Z,2.33
2018-07-16T17:08:52.197Z,2.50
2018-07-16T17:11:21.184Z,2.43
2018-07-16T17:13:50.690Z,2.33
2018-07-16T17:16:19.794Z,2.60
2018-07-16T17:18:48.794Z,2.80
2018-07-16T17:21:17.807Z,1.97
2018-07-16T17:23:47.077Z,2.40
2018-07-16T17:26:16.865Z,2.50
2018-07-16T17:28:45.905Z,3.00
2018-07-16T17:31:15.009Z,2.60
2018-07-16T17:33:44.179Z,2.50
2018-07-16T17:36:13.304Z,2.60
2018-07-16T17:38:42.265Z,2.43
2018-07-16T17:41:11.403Z,2.70
2018-07-16T17:43:40.603Z,2.37
2018-07-16T17:46:09.625Z,2.60
2018-07-16T17:48:38.721Z,2.63
2018-07-16T17:51:08.014Z,2.70
2018-07-16T17:53:37.319Z,3.10
2018-07-16T17:56:06.463Z,2.83
2018-07-16T17:58:35.559Z,3.23
2018-07-16T18:01:04.825Z,2.93
2018-07-16T18:03:33.864Z,2.77
2018-07-16T18:06:02.885Z,2.87
2018-07-16T18:08:32.456Z,2.50
2018-07-16T18:11:01.628Z,2.90
2018-07-16T18:13:30.613Z,2.97
2018-07-16T18:16:00.480Z,2.93
2018-07-16T18:18:29.631Z,3.13
2018-07-16T18:20:58.740Z,2.90
2018-07-16T18:23:27.860Z,3.00
2018-07-16T18:25:56.940Z,3.77
2018-07-16T18:28:26.199Z,3.60
2018-07-16T18:30:55.237Z,3.13
2018-07-16T18:33:24.341Z,3.13
2018-07-16T18:35:53.535Z,3.43
2018-07-16T18:38:22.626Z,3.30
2018-07-16T18:40:51.696Z,2.73
2018-07-16T18:43:21.649Z,3.20
2018-07-16T18:45:50.759Z,3.27
2018-07-16T18:48:20.181Z,3.00
2018-07-16T18:50:49.261Z,3.70
2018-07-16T18:53:18.385Z,3.30
2018-07-16T18:55:47.416Z,2.97
2018-07-16T18:58:16.541Z,3.40
2018-07-16T19:00:45.754Z,3.20
2018-07-16T19:03:14.812Z,3.50
2018-07-16T19:05:44.059Z,3.43
2018-07-16T19:08:13.089Z,3.30
2018-07-16T19:10:42.437Z,3.60
2018-07-16T19:13:11.549Z,3.30
2018-07-16T19:15:40.589Z,3.23
2018-07-16T19:18:10.210Z,3.73
2018-07-16T19:20:39.291Z,3.80
2018-07-16T19:23:08.230Z,3.33
2018-07-16T19:25:37.875Z,3.67
2018-07-16T19:28:06.843Z,3.53
2018-07-16T19:30:36.073Z,3.50
2018-07-16T19:33:05.788Z,3.37
2018-07-16T19:35:34.816Z,4.00
2018-07-16T19:38:04.087Z,4.07
2018-07-16T19:40:33.223Z,3.77
2018-07-16T19:43:02.627Z,3.87
2018-07-16T19:45:31.795Z,3.97
2018-07-16T19:48:00.997Z,4.03
2018-07-16T19:50:30.096Z,3.97
2018-07-16T19:52:59.187Z,3.93
2018-07-16T19:55:28.176Z,3.83
2018-07-16T19:57:57.488Z,4.07
2018-07-16T20:00:26.417Z,5.20
2018-07-16T20:02:55.660Z,5.90
2018-07-16T20:05:24.688Z,6.10
2018-07-16T20:07:53.636Z,5.17
2018-07-16T20:10:23.081Z,5.47
2018-07-16T20:12:52.110Z,4.57
2018-07-16T20:15:21.378Z,4.53
2018-07-16T20:17:50.354Z,4.87
2018-07-16T20:20:19.395Z,3.83
2018-07-16T20:22:48.437Z,4.80
2018-07-16T20:25:17.471Z,4.67
2018-07-16T20:27:46.465Z,4.70
2018-07-16T20:30:15.518Z,5.20
2018-07-16T20:32:44.610Z,5.30
2018-07-16T20:35:13.675Z,4.70
2018-07-16T20:37:42.904Z,5.40
2018-07-16T20:40:11.951Z,5.63
2018-07-16T20:42:40.983Z,5.20
2018-07-16T20:45:10.075Z,4.70
2018-07-16T20:47:39.168Z,5.00
2018-07-16T20:50:08.277Z,4.87
2018-07-16T20:52:37.371Z,4.73
2018-07-16T20:55:06.464Z,4.60
2018-07-16T20:57:35.675Z,4.90
2018-07-16T21:00:04.915Z,5.00
2018-07-16T21:02:34.077Z,4.47
2018-07-16T21:05:03.214Z,5.10
2018-07-16T21:07:32.380Z,4.57
2018-07-16T21:10:01.398Z,4.27
2018-07-16T21:12:30.476Z,4.93
2018-07-16T21:14:59.586Z,5.07
2018-07-16T21:17:28.773Z,5.27
2018-07-16T21:19:57.995Z,4.87
2018-07-16T21:22:27.180Z,5.33
2018-07-16T21:24:56.275Z,5.23
2018-07-16T21:27:25.779Z,4.80
2018-07-16T21:29:54.893Z,4.90
2018-07-16T21:32:23.891Z,5.93
2018-07-16T21:34:52.849Z,5.40
2018-07-16T21:37:21.835Z,5.27
2018-07-16T21:39:50.876Z,5.43
2018-07-16T21:42:19.911Z,5.30
2018-07-16T21:44:48.873Z,5.43
2018-07-16T21:47:17.913Z,5.60
2018-07-16T21:49:47.885Z,5.87
2018-07-16T21:52:16.884Z,5.40
2018-07-16T21:54:46.004Z,5.27
2018-07-16T21:57:15.198Z,5.90
2018-07-16T21:59:44.200Z,5.60
2018-07-16T22:02:13.381Z,5.77
2018-07-16T22:04:42.492Z,5.70
2018-07-16T22:07:11.584Z,5.60
2018-07-16T22:09:40.678Z,5.13
2018-07-16T22:12:09.741Z,5.30
2018-07-16T22:14:38.785Z,5.60
2018-07-16T22:17:07.876Z,5.87
2018-07-16T22:19:36.865Z,5.43
2018-07-16T22:22:05.969Z,5.90
2018-07-16T22:24:34.935Z,6.07
2018-07-16T22:27:03.659Z,6.00
2018-07-16T22:29:32.666Z,6.70
2018-07-16T22:32:01.744Z,6.00
2018-07-16T22:34:31.365Z,5.37
2018-07-16T22:37:00.490Z,5.70
2018-07-16T22:39:29.667Z,5.67
2018-07-16T22:41:58.767Z,5.63
2018-07-16T22:44:27.867Z,6.10
2018-07-16T22:46:56.964Z,6.17
2018-07-16T22:49:26.063Z,5.73
2018-07-16T22:51:55.136Z,6.70
2018-07-16T22:54:24.364Z,6.27
2018-07-16T22:56:53.392Z,6.67
2018-07-16T22:59:22.552Z,5.60
2018-07-16T23:01:51.669Z,6.37
2018-07-16T23:04:20.871Z,5.40
2018-07-16T23:06:50.066Z,6.33
2018-07-16T23:09:19.164Z,6.63
2018-07-16T23:11:49.300Z,6.40
2018-07-16T23:14:19.001Z,6.00
2018-07-16T23:16:48.020Z,6.23
2018-07-16T23:19:17.083Z,6.13
2018-07-16T23:21:46.195Z,6.67
2018-07-16T23:24:15.194Z,6.23
2018-07-16T23:26:45.175Z,6.47
2018-07-16T23:29:14.622Z,6.77
2018-07-16T23:31:44.437Z,6.00
2018-07-16T23:34:13.430Z,6.03
2018-07-16T23:36:42.455Z,6.23
2018-07-16T23:39:12.959Z,6.63
2018-07-16T23:41:43.084Z,6.37
2018-07-16T23:44:12.043Z,6.83
2018-07-16T23:46:40.790Z,7.17
2018-07-16T23:49:09.759Z,6.90
2018-07-16T23:51:38.764Z,6.80
2018-07-16T23:54:07.861Z,7.33
2018-07-16T23:56:36.962Z,7.13
2018-07-16T23:59:06.164Z,7.37
